Time;durP1;ratioP1;P1;durP2;ratioP2;P2;SDS_P1;SDS_P2;PMS_P1;PMS_P2;Temp;Humidity;BMP_temperature;BMP_pressure;BME280_temperature;BME280_humidity;BME280_pressure;Samples;Min_cycle;Max_cycle;Signal;HPM_P1;HPM_P2
2022/03/11 00:00:42;;;;;;;29.23;18.73;;;5.80;59.20;;;;;;4986657;28;20238;-81
2022/03/11 00:03:12;;;;;;;32.45;18.80;;;5.80;59.20;;;;;;4987532;28;20223;-80
2022/03/11 00:05:41;;;;;;;35.90;22.35;;;5.80;59.20;;;;;;4982377;28;20231;-81
2022/03/11 00:08:09;;;;;;;35.28;22.33;;;5.80;59.20;;;;;;4985436;28;20704;-82
2022/03/11 00:10:37;;;;;;;34.55;21.65;;;5.70;59.20;;;;;;4987448;28;20218;-81
2022/03/11 00:13:05;;;;;;;37.78;20.70;;;5.70;59.20;;;;;;5003432;28;20226;-81
2022/03/11 00:15:33;;;;;;;30.52;16.95;;;5.70;59.20;;;;;;4989564;28;20269;-81
2022/03/11 00:18:03;;;;;;;31.58;18.25;;;5.60;59.20;;;;;;4999285;28;20207;-82
2022/03/11 00:20:31;;;;;;;33.05;16.73;;;5.60;59.20;;;;;;4989253;28;20214;-81
2022/03/11 00:23:01;;;;;;;35.33;18.45;;;5.50;59.30;;;;;;4989181;28;20210;-81
2022/03/11 00:25:31;;;;;;;51.83;27.77;;;5.50;59.30;;;;;;4996006;28;20211;-82
2022/03/11 00:28:00;;;;;;;44.63;24.20;;;5.50;59.30;;;;;;4989025;28;20202;-81
2022/03/11 00:30:28;;;;;;;44.60;24.50;;;5.50;59.50;;;;;;4992376;28;20805;-80
2022/03/11 00:32:57;;;;;;;39.67;21.17;;;5.40;59.50;;;;;;4987833;28;20209;-82
2022/03/11 00:35:26;;;;;;;37.28;20.08;;;5.40;59.50;;;;;;4989362;28;20268;-81
2022/03/11 00:37:54;;;;;;;35.63;20.10;;;5.40;59.60;;;;;;4987926;28;20687;-81
2022/03/11 00:40:22;;;;;;;35.10;20.92;;;5.30;59.60;;;;;;4989448;28;20235;-82
2022/03/11 00:42:50;;;;;;;42.05;21.83;;;5.30;59.60;;;;;;4983583;28;20214;-81
2022/03/11 00:45:18;;;;;;;41.88;23.33;;;5.30;59.70;;;;;;5000635;28;20231;-80
2022/03/11 00:47:46;;;;;;;40.83;25.35;;;5.30;59.70;;;;;;4988336;28;20204;-81
2022/03/11 00:50:14;;;;;;;43.08;24.58;;;5.30;59.80;;;;;;4987113;28;20229;-81
2022/03/11 00:52:44;;;;;;;37.33;22.70;;;5.30;59.80;;;;;;4986101;28;20203;-81
2022/03/11 00:55:12;;;;;;;38.17;22.42;;;5.30;59.90;;;;;;4986036;28;20206;-82
2022/03/11 00:57:40;;;;;;;38.10;22.65;;;5.30;59.90;;;;;;5000381;28;20207;-81
2022/03/11 01:00:09;;;;;;;39.30;23.52;;;5.20;59.90;;;;;;5002714;28;20223;-81
2022/03/11 01:02:39;;;;;;;41.90;24.10;;;5.20;59.90;;;;;;4987131;28;20218;-80
2022/03/11 01:05:09;;;;;;;42.20;23.30;;;5.20;59.90;;;;;;4988044;28;20667;-81
2022/03/11 01:07:37;;;;;;;36.72;21.95;;;5.20;60.00;;;;;;5002645;28;20916;-81
2022/03/11 01:10:07;;;;;;;36.13;22.60;;;5.20;60.00;;;;;;4988047;28;20227;-80
2022/03/11 01:12:37;;;;;;;39.50;22.55;;;5.20;60.00;;;;;;5002557;28;20215;-80
2022/03/11 01:15:06;;;;;;;41.28;23.40;;;5.20;60.10;;;;;;4987708;28;20195;-80
2022/03/11 01:17:34;;;;;;;43.90;23.92;;;5.20;60.10;;;;;;4987311;28;20230;-80
2022/03/11 01:20:03;;;;;;;41.53;24.60;;;5.10;60.10;;;;;;5002563;28;20230;-80
2022/03/11 01:22:31;;;;;;;41.60;24.27;;;5.10;60.10;;;;;;4982660;28;20199;-81
2022/03/11 01:25:00;;;;;;;44.65;23.00;;;5.10;60.20;;;;;;4986919;28;20768;-81
2022/03/11 01:27:29;;;;;;;38.45;23.00;;;5.10;60.20;;;;;;4987830;28;20206;-81
2022/03/11 01:29:57;;;;;;;41.60;23.75;;;5.10;60.30;;;;;;4988668;28;20230;-81
2022/03/11 01:32:25;;;;;;;45.70;24.50;;;5.10;60.30;;;;;;4998602;28;20250;-81
2022/03/11 01:34:53;;;;;;;45.13;24.70;;;5.10;60.30;;;;;;4996653;28;20732;-81
2022/03/11 01:37:21;;;;;;;41.90;24.73;;;5.00;60.30;;;;;;4986497;28;20202;-80
2022/03/11 01:39:48;;;;;;;41.35;24.05;;;5.00;60.30;;;;;;4987499;28;20846;-81
2022/03/11 01:42:16;;;;;;;45.20;23.88;;;5.00;60.30;;;;;;4987675;28;20198;-81
2022/03/11 01:44:46;;;;;;;34.65;21.52;;;5.00;60.40;;;;;;5001546;28;20210;-80
2022/03/11 01:47:14;;;;;;;39.15;22.63;;;5.00;60.40;;;;;;5001885;28;20856;-81
2022/03/11 01:49:42;;;;;;;38.83;22.20;;;5.00;60.40;;;;;;4986620;28;20382;-82
2022/03/11 01:52:12;;;;;;;41.80;24.25;;;4.90;60.40;;;;;;5001784;28;20253;-81
2022/03/11 01:54:41;;;;;;;36.83;23.92;;;4.90;60.50;;;;;;4984713;28;20675;-82
2022/03/11 01:57:09;;;;;;;49.03;27.23;;;4.90;60.50;;;;;;5001989;28;20224;-81
2022/03/11 01:59:37;;;;;;;48.25;27.05;;;4.90;60.60;;;;;;5002088;28;20317;-82
2022/03/11 02:02:07;;;;;;;47.03;26.92;;;4.90;60.60;;;;;;4986922;28;20245;-82
2022/03/11 02:04:35;;;;;;;43.40;25.33;;;4.90;60.70;;;;;;4987029;28;20302;-82
2022/03/11 02:07:04;;;;;;;44.92;26.75;;;4.90;60.80;;;;;;4984386;28;20218;-82
2022/03/11 02:09:32;;;;;;;43.60;25.98;;;4.80;60.70;;;;;;5002195;28;20832;-82
2022/03/11 02:12:00;;;;;;;44.85;26.80;;;4.80;60.90;;;;;;4985986;28;20202;-82
2022/03/11 02:14:28;;;;;;;41.72;24.40;;;4.70;60.90;;;;;;4985482;28;20195;-80
2022/03/11 02:16:56;;;;;;;42.70;24.83;;;4.60;61.10;;;;;;4985810;28;20231;-82
2022/03/11 02:19:26;;;;;;;47.90;28.63;;;4.50;61.00;;;;;;4997477;28;20229;-83
2022/03/11 02:21:57;;;;;;;41.90;24.38;;;4.40;61.30;;;;;;4985010;28;20262;-80
2022/03/11 02:24:27;;;;;;;44.90;25.02;;;4.20;61.30;;;;;;4983429;28;20199;-80
2022/03/11 02:26:56;;;;;;;43.28;26.33;;;4.10;61.50;;;;;;4985975;28;20627;-81
2022/03/11 02:29:26;;;;;;;46.75;28.52;;;4.00;61.60;;;;;;4984414;28;20762;-80
2022/03/11 02:31:54;;;;;;;44.38;24.95;;;4.00;62.10;;;;;;5001303;28;20296;-80
2022/03/11 02:34:22;;;;;;;44.75;26.58;;;4.00;62.10;;;;;;4990117;28;20241;-81
2022/03/11 02:36:50;;;;;;;41.55;25.92;;;4.00;62.30;;;;;;4986271;28;20211;-81
2022/03/11 02:39:19;;;;;;;42.10;26.05;;;4.00;62.30;;;;;;4986141;28;20222;-80
2022/03/11 02:41:49;;;;;;;45.97;27.73;;;4.00;62.40;;;;;;4983856;28;20206;-80
2022/03/11 02:44:17;;;;;;;39.88;23.80;;;4.10;62.40;;;;;;4985508;28;20550;-81
2022/03/11 02:46:45;;;;;;;46.58;24.63;;;4.10;62.50;;;;;;4988479;28;20230;-79
2022/03/11 02:49:13;;;;;;;39.78;23.70;;;4.10;62.60;;;;;;4988258;28;20230;-80
2022/03/11 02:51:41;;;;;;;39.90;22.80;;;4.20;62.60;;;;;;4998992;28;20938;-81
2022/03/11 02:54:09;;;;;;;44.03;24.45;;;4.20;62.70;;;;;;4985385;28;20199;-81
2022/03/11 02:56:37;;;;;;;47.50;27.23;;;4.20;62.80;;;;;;4997211;28;20257;-80
2022/03/11 02:59:06;;;;;;;49.22;27.08;;;4.30;62.80;;;;;;4985709;28;20248;-82
2022/03/11 03:01:34;;;;;;;48.03;26.67;;;4.30;62.80;;;;;;4984401;28;20219;-81
2022/03/11 03:04:03;;;;;;;41.78;26.25;;;4.30;62.80;;;;;;4984052;28;20214;-81
2022/03/11 03:06:31;;;;;;;40.35;24.30;;;4.40;62.80;;;;;;4986305;28;20211;-82
2022/03/11 03:08:58;;;;;;;42.22;24.77;;;4.40;62.80;;;;;;5000409;28;20203;-81
2022/03/11 03:11:26;;;;;;;41.38;23.38;;;4.40;62.70;;;;;;4985323;28;20207;-82
2022/03/11 03:13:54;;;;;;;40.47;23.33;;;4.40;62.60;;;;;;4984294;28;20616;-80
2022/03/11 03:16:24;;;;;;;37.58;22.88;;;4.40;62.50;;;;;;5000861;28;20218;-81
2022/03/11 03:18:52;;;;;;;37.40;22.80;;;4.40;62.40;;;;;;4988776;28;20572;-82
2022/03/11 03:21:20;;;;;;;42.65;23.25;;;4.30;62.30;;;;;;4986924;28;20293;-81
2022/03/11 03:23:48;;;;;;;44.92;25.63;;;4.30;62.30;;;;;;4983660;28;20207;-81
2022/03/11 03:26:15;;;;;;;46.38;25.25;;;4.30;62.30;;;;;;4985882;28;20222;-81
2022/03/11 03:28:43;;;;;;;42.17;24.95;;;4.20;62.30;;;;;;4986443;28;20206;-80
2022/03/11 03:31:23;;;;;;;44.70;25.95;;;4.20;62.30;;;;;;4999447;28;20321;-81
2022/03/11 03:33:52;;;;;;;48.95;28.17;;;4.20;62.40;;;;;;4987779;28;20725;-82
2022/03/11 03:36:20;;;;;;;45.63;26.50;;;4.20;62.40;;;;;;5000931;28;20195;-82
2022/03/11 03:38:48;;;;;;;51.45;27.25;;;4.20;62.50;;;;;;4986571;28;20195;-82
2022/03/11 03:41:16;;;;;;;48.15;26.92;;;4.20;62.50;;;;;;5001320;28;20720;-82
2022/03/11 03:43:44;;;;;;;52.28;30.70;;;4.30;62.50;;;;;;4982473;28;20217;-80
2022/03/11 03:46:12;;;;;;;41.95;25.83;;;4.30;62.40;;;;;;4988622;28;20222;-81
2022/03/11 03:48:41;;;;;;;49.00;28.35;;;4.20;62.40;;;;;;5005156;28;20202;-81
2022/03/11 03:51:09;;;;;;;51.47;29.85;;;4.20;62.40;;;;;;4989597;28;20237;-82
2022/03/11 03:53:37;;;;;;;48.55;26.95;;;4.10;62.40;;;;;;4989443;28;20202;-82
2022/03/11 03:56:06;;;;;;;48.50;28.65;;;4.00;62.40;;;;;;5002804;28;20237;-82
2022/03/11 03:58:36;;;;;;;51.35;28.20;;;4.00;62.60;;;;;;5003214;28;20266;-81
2022/03/11 04:01:04;;;;;;;42.22;26.08;;;4.00;62.80;;;;;;5003699;28;20238;-81
2022/03/11 04:03:32;;;;;;;38.92;25.02;;;4.10;62.80;;;;;;4986575;28;20234;-80
2022/03/11 04:06:04;;;;;;;39.65;24.33;;;4.10;62.70;;;;;;4988401;28;20261;-80
2022/03/11 04:08:32;;;;;;;42.10;23.52;;;4.10;62.60;;;;;;4987497;28;20642;-80
2022/03/11 04:11:00;;;;;;;40.20;24.73;;;4.00;62.50;;;;;;4987476;28;20232;-80
2022/03/11 04:13:28;;;;;;;44.17;24.00;;;4.00;62.50;;;;;;4985197;28;20203;-80
2022/03/11 04:15:56;;;;;;;45.33;22.80;;;3.90;62.60;;;;;;4988202;28;20238;-81
2022/03/11 04:18:27;;;;;;;40.28;23.20;;;3.90;62.40;;;;;;4987279;28;20197;-81
2022/03/11 04:20:55;;;;;;;43.08;24.73;;;3.80;62.60;;;;;;5002944;28;20238;-80
2022/03/11 04:23:24;;;;;;;41.95;25.50;;;3.80;62.60;;;;;;4983853;28;20222;-79
2022/03/11 04:25:52;;;;;;;44.00;25.23;;;3.80;62.40;;;;;;4989181;28;20218;-81
2022/03/11 04:28:20;;;;;;;49.90;29.23;;;3.70;62.40;;;;;;4989936;28;20222;-80
2022/03/11 04:30:48;;;;;;;51.45;29.38;;;3.60;62.50;;;;;;4988313;28;20239;-80
2022/03/11 04:33:16;;;;;;;60.35;33.55;;;3.50;62.50;;;;;;4987376;28;20253;-81
2022/03/11 04:35:44;;;;;;;65.05;32.92;;;3.50;62.60;;;;;;5003947;28;20208;-80
2022/03/11 04:38:12;;;;;;;51.58;29.27;;;3.50;62.70;;;;;;4988981;28;20195;-81
2022/03/11 04:40:41;;;;;;;51.58;29.25;;;3.40;62.90;;;;;;4987319;28;20289;-80
2022/03/11 04:43:09;;;;;;;50.88;27.25;;;3.40;62.80;;;;;;4981042;28;20206;-81
2022/03/11 04:45:40;;;;;;;43.80;26.92;;;3.30;62.70;;;;;;4988116;28;20700;-81
2022/03/11 04:48:08;;;;;;;54.75;30.73;;;3.20;62.70;;;;;;4988351;28;20716;-81
2022/03/11 04:50:36;;;;;;;54.53;28.38;;;3.20;62.70;;;;;;4989120;28;20214;-81
2022/03/11 04:53:04;;;;;;;49.40;27.42;;;3.00;62.90;;;;;;4984338;28;20207;-81
2022/03/11 04:55:32;;;;;;;55.40;28.67;;;2.90;62.70;;;;;;4988422;28;20221;-81
2022/03/11 04:58:01;;;;;;;49.75;27.40;;;2.80;62.60;;;;;;5001447;28;20203;-80
2022/03/11 05:00:29;;;;;;;49.65;26.33;;;2.70;62.90;;;;;;4987518;28;20256;-80
2022/03/11 05:02:58;;;;;;;42.80;23.50;;;2.60;62.80;;;;;;4987612;28;20214;-81
2022/03/11 05:05:26;;;;;;;40.92;24.95;;;2.50;63.00;;;;;;4986665;28;20290;-81
2022/03/11 05:07:55;;;;;;;43.85;24.80;;;2.50;63.20;;;;;;4986623;28;20293;-81
2022/03/11 05:10:22;;;;;;;45.45;25.05;;;2.60;63.50;;;;;;4987139;28;20226;-81
2022/03/11 05:12:50;;;;;;;41.58;25.20;;;2.70;63.40;;;;;;4986114;28;20190;-81
2022/03/11 05:15:21;;;;;;;49.25;27.75;;;2.70;63.40;;;;;;4986181;28;20202;-81
2022/03/11 05:17:49;;;;;;;46.85;25.77;;;2.70;63.30;;;;;;4991598;28;20691;-82
2022/03/11 05:20:17;;;;;;;58.78;31.40;;;2.60;63.00;;;;;;4987855;28;20229;-80
2022/03/11 05:22:46;;;;;;;40.85;23.95;;;2.50;62.90;;;;;;4987069;28;20202;-80
2022/03/11 05:25:14;;;;;;;39.45;23.88;;;2.30;62.90;;;;;;4988562;28;20206;-80
2022/03/11 05:27:42;;;;;;;39.42;23.58;;;2.20;63.00;;;;;;5001977;28;20735;-81
2022/03/11 05:30:10;;;;;;;42.65;24.42;;;2.00;63.20;;;;;;4987809;28;20227;-79
2022/03/11 05:32:44;;;;;;;44.53;24.27;;;1.90;63.30;;;;;;4992413;28;20211;-78
2022/03/11 05:35:13;;;;;;;48.40;26.35;;;2.00;63.60;;;;;;4985516;28;20829;-80
2022/03/11 05:37:41;;;;;;;44.97;26.05;;;2.10;63.80;;;;;;4988209;28;20203;-81
2022/03/11 05:40:10;;;;;;;47.63;25.80;;;2.20;63.90;;;;;;4987663;28;20222;-81
2022/03/11 05:42:38;;;;;;;54.53;28.10;;;2.30;63.80;;;;;;4986784;28;20210;-80
2022/03/11 05:45:08;;;;;;;47.92;26.17;;;2.30;63.70;;;;;;5002617;28;20711;-79
2022/03/11 05:47:36;;;;;;;53.28;26.75;;;2.30;63.70;;;;;;4992876;28;20612;-81
2022/03/11 05:50:07;;;;;;;41.22;23.90;;;2.30;63.70;;;;;;4988029;28;20229;-80
2022/03/11 05:52:37;;;;;;;41.55;24.77;;;2.30;63.60;;;;;;5001943;28;20198;-82
2022/03/11 05:55:06;;;;;;;44.33;26.02;;;2.30;63.60;;;;;;5003045;28;20195;-82
2022/03/11 05:57:34;;;;;;;46.47;24.80;;;2.20;63.60;;;;;;5002855;28;20210;-82
2022/03/11 06:00:04;;;;;;;49.83;28.83;;;2.20;63.70;;;;;;4985080;28;20218;-81
2022/03/11 06:02:39;;;;;;;54.05;29.67;;;2.30;63.90;;;;;;4983784;28;20241;-81
2022/03/11 06:05:10;;;;;;;56.88;27.88;;;2.30;64.00;;;;;;5002645;28;20210;-82
2022/03/11 06:07:40;;;;;;;91.10;35.78;;;2.40;64.00;;;;;;4987239;28;20703;-79
2022/03/11 06:10:09;;;;;;;72.88;34.65;;;2.40;63.90;;;;;;5002543;28;20231;-82
2022/03/11 06:12:37;;;;;;;84.68;36.35;;;2.50;64.00;;;;;;4998807;28;20691;-82
2022/03/11 06:15:11;;;;;;;73.22;36.03;;;2.50;64.00;;;;;;4985050;28;20194;-80
2022/03/11 06:17:39;;;;;;;46.17;23.90;;;2.60;63.90;;;;;;4986526;28;20219;-82
2022/03/11 06:20:13;;;;;;;48.67;22.70;;;2.60;63.90;;;;;;4986065;28;20227;-82
2022/03/11 06:22:47;;;;;;;39.65;22.40;;;2.60;63.90;;;;;;4985512;28;20203;-82
2022/03/11 06:25:15;;;;;;;39.28;21.92;;;2.60;63.80;;;;;;4998787;28;20210;-82
2022/03/11 06:27:45;;;;;;;44.78;24.63;;;2.50;63.80;;;;;;4987114;28;20222;-81
2022/03/11 06:30:14;;;;;;;45.35;24.00;;;2.50;63.80;;;;;;4984527;28;20229;-80
2022/03/11 06:32:44;;;;;;;44.05;22.63;;;2.50;63.70;;;;;;4991010;28;20221;-80
2022/03/11 06:35:15;;;;;;;48.83;29.70;;;2.50;63.60;;;;;;4986021;28;20194;-82
2022/03/11 06:37:44;;;;;;;48.58;25.55;;;2.50;63.80;;;;;;4987291;28;20199;-82
2022/03/11 06:40:13;;;;;;;40.42;24.77;;;2.50;63.80;;;;;;4983896;28;20222;-82
2022/03/11 06:42:43;;;;;;;57.33;26.98;;;2.40;63.80;;;;;;4984541;28;20626;-82
2022/03/11 06:45:12;;;;;;;40.10;22.50;;;2.40;63.90;;;;;;5001898;28;20288;-81
2022/03/11 06:47:41;;;;;;;38.90;21.60;;;2.50;64.00;;;;;;4998773;28;20700;-82
2022/03/11 06:50:10;;;;;;;35.97;20.02;;;2.50;64.20;;;;;;4986196;28;20222;-81
2022/03/11 06:52:39;;;;;;;40.55;21.60;;;2.50;64.10;;;;;;4983099;28;20209;-81
2022/03/11 06:55:08;;;;;;;34.00;20.75;;;2.60;64.10;;;;;;5001005;28;20210;-80
2022/03/11 06:57:36;;;;;;;33.00;19.83;;;2.60;64.30;;;;;;4986105;28;20310;-81
2022/03/11 07:00:06;;;;;;;35.08;19.80;;;2.70;64.20;;;;;;5001170;28;20218;-80
2022/03/11 07:02:36;;;;;;;36.33;19.65;;;2.70;64.20;;;;;;4984590;28;20233;-81
2022/03/11 07:05:05;;;;;;;35.65;18.90;;;2.80;64.20;;;;;;5001954;28;20269;-81
2022/03/11 07:07:33;;;;;;;29.58;18.48;;;2.80;64.20;;;;;;4996090;28;20194;-80
2022/03/11 07:10:03;;;;;;;30.80;18.67;;;2.90;64.10;;;;;;4987085;28;20237;-80
2022/03/11 07:12:31;;;;;;;30.08;18.33;;;3.00;64.00;;;;;;4984629;28;20199;-81
2022/03/11 07:15:01;;;;;;;34.15;18.10;;;3.00;64.00;;;;;;4988410;28;20230;-82
2022/03/11 07:17:29;;;;;;;35.85;20.63;;;3.10;63.90;;;;;;4991871;28;20234;-80
2022/03/11 07:19:58;;;;;;;38.17;18.95;;;3.10;63.70;;;;;;4986074;28;20245;-78
2022/03/11 07:22:26;;;;;;;27.05;16.13;;;3.10;63.70;;;;;;4986518;28;20236;-81
2022/03/11 07:24:59;;;;;;;28.48;15.73;;;3.20;63.50;;;;;;4986647;28;20199;-81
2022/03/11 07:27:28;;;;;;;25.95;14.90;;;3.20;63.30;;;;;;4987095;28;20214;-82
2022/03/11 07:29:57;;;;;;;28.70;15.80;;;3.20;63.30;;;;;;5001111;28;20238;-82
2022/03/11 07:32:25;;;;;;;29.95;15.90;;;3.30;63.00;;;;;;4985240;28;20230;-82
2022/03/11 07:34:53;;;;;;;26.42;15.20;;;3.40;63.00;;;;;;4984978;28;20206;-82
2022/03/11 07:37:21;;;;;;;30.65;15.13;;;3.40;62.80;;;;;;4987604;28;20225;-80
2022/03/11 07:39:50;;;;;;;28.88;15.10;;;3.40;62.60;;;;;;4984509;28;20219;-80
2022/03/11 07:42:18;;;;;;;23.23;13.70;;;3.50;62.60;;;;;;5000657;28;20833;-81
2022/03/11 07:44:47;;;;;;;20.10;12.48;;;3.60;62.30;;;;;;5000847;28;20206;-81
2022/03/11 07:47:15;;;;;;;20.85;13.00;;;3.60;62.10;;;;;;5000957;28;20226;-81
2022/03/11 07:49:43;;;;;;;25.52;13.95;;;3.60;61.80;;;;;;4988557;28;20234;-80
2022/03/11 07:52:15;;;;;;;23.23;13.02;;;3.70;61.70;;;;;;5001584;28;20251;-81
2022/03/11 07:54:43;;;;;;;19.85;12.48;;;3.70;61.80;;;;;;4984543;28;20210;-80
2022/03/11 07:57:12;;;;;;;26.05;13.95;;;3.80;61.40;;;;;;4989790;28;20207;-81
2022/03/11 07:59:41;;;;;;;25.77;13.23;;;3.80;60.40;;;;;;4987284;28;20910;-80
2022/03/11 08:02:11;;;;;;;31.40;16.80;;;3.80;60.40;;;;;;5001020;28;20234;-80
2022/03/11 08:04:39;;;;;;;25.42;15.07;;;3.90;60.70;;;;;;5000441;28;20687;-80
2022/03/11 08:07:09;;;;;;;22.08;13.40;;;3.90;60.90;;;;;;4986697;28;20715;-81
2022/03/11 08:09:39;;;;;;;26.45;13.43;;;4.00;60.90;;;;;;4986147;28;20234;-81
2022/03/11 08:12:08;;;;;;;26.38;13.40;;;4.00;59.20;;;;;;4984968;28;20569;-80
2022/03/11 08:14:36;;;;;;;34.20;17.80;;;4.10;59.80;;;;;;4982511;28;20211;-80
2022/03/11 08:17:04;;;;;;;23.08;11.73;;;4.10;59.60;;;;;;4984579;28;20225;-79
2022/03/11 08:19:35;;;;;;;19.45;11.07;;;4.10;59.60;;;;;;4983434;28;20273;-82
2022/03/11 08:22:03;;;;;;;23.40;13.23;;;4.10;58.90;;;;;;4986056;28;20203;-80
2022/03/11 08:24:31;;;;;;;22.00;11.18;;;4.20;59.20;;;;;;4980430;28;20211;-82
2022/03/11 08:26:59;;;;;;;21.48;12.25;;;4.30;58.90;;;;;;5000641;28;20203;-81
2022/03/11 08:29:32;;;;;;;23.38;12.77;;;4.30;58.70;;;;;;4981985;28;20227;-81
2022/03/11 08:32:01;;;;;;;19.65;11.50;;;4.30;58.60;;;;;;4992273;28;20486;-81
2022/03/11 08:34:29;;;;;;;21.52;11.93;;;4.40;58.30;;;;;;5003751;28;20207;-81
2022/03/11 08:37:20;;;;;;;17.95;11.10;;;4.40;58.30;;;;;;5004152;28;20253;-82
2022/03/11 08:39:48;;;;;;;19.05;11.50;;;4.50;58.00;;;;;;4987999;28;20237;-82
2022/03/11 08:42:16;;;;;;;20.50;11.63;;;4.50;58.00;;;;;;4989888;28;20222;-80
2022/03/11 08:44:45;;;;;;;20.38;12.15;;;4.50;57.90;;;;;;4999890;28;20206;-80
2022/03/11 08:47:13;;;;;;;25.58;12.85;;;4.60;57.90;;;;;;5003836;28;20226;-80
2022/03/11 08:50:03;;;;;;;17.73;10.75;;;4.70;57.90;;;;;;4989131;28;20771;-80
2022/03/11 08:52:32;;;;;;;18.15;11.70;;;4.70;57.60;;;;;;4983829;28;20221;-82
2022/03/11 08:55:01;;;;;;;19.25;11.90;;;4.80;57.60;;;;;;5003540;28;20211;-80
2022/03/11 08:57:29;;;;;;;18.20;10.63;;;4.80;57.40;;;;;;5004303;28;20210;-81
2022/03/11 09:00:00;;;;;;;19.95;11.68;;;4.90;57.30;;;;;;4988062;28;20226;-80
2022/03/11 09:02:28;;;;;;;18.02;10.80;;;4.90;57.50;;;;;;4988564;28;20226;-82
2022/03/11 09:04:56;;;;;;;19.58;10.65;;;5.00;57.40;;;;;;4989289;28;20217;-82
2022/03/11 09:07:29;;;;;;;20.88;10.77;;;5.10;57.10;;;;;;4986358;28;20733;-82
2022/03/11 09:09:58;;;;;;;22.35;11.95;;;5.10;56.80;;;;;;4998544;28;20292;-80
2022/03/11 09:12:26;;;;;;;20.40;10.02;;;5.20;56.60;;;;;;4989562;28;20273;-79
2022/03/11 09:15:00;;;;;;;16.60;10.60;;;5.20;56.90;;;;;;4987703;28;20203;-82
2022/03/11 09:17:27;;;;;;;28.13;13.20;;;5.20;56.50;;;;;;5002848;28;20221;-81
2022/03/11 09:19:56;;;;;;;22.88;13.82;;;5.30;56.60;;;;;;4989009;28;20787;-81
2022/03/11 09:22:41;;;;;;;25.48;12.35;;;5.30;56.70;;;;;;4996917;28;20211;-80
2022/03/11 09:25:12;;;;;;;18.88;11.65;;;5.50;56.50;;;;;;4989065;28;20203;-81
2022/03/11 09:27:40;;;;;;;17.20;11.50;;;5.50;56.20;;;;;;4985866;28;20217;-81
2022/03/11 09:30:10;;;;;;;21.40;12.15;;;5.60;56.00;;;;;;4988125;28;20300;-81
2022/03/11 09:32:38;;;;;;;20.63;11.02;;;5.60;55.80;;;;;;4986535;28;20660;-81
2022/03/11 09:35:07;;;;;;;21.70;12.07;;;5.70;56.00;;;;;;5003635;28;20218;-81
2022/03/11 09:37:37;;;;;;;26.30;12.68;;;5.70;55.90;;;;;;4989974;28;20206;-81
2022/03/11 09:40:08;;;;;;;17.02;10.23;;;5.80;55.80;;;;;;4982172;28;20227;-81
2022/03/11 09:42:37;;;;;;;22.60;11.35;;;5.90;55.60;;;;;;4989480;28;20215;-81
2022/03/11 09:45:07;;;;;;;20.13;10.60;;;5.90;55.50;;;;;;4999527;28;20211;-80
2022/03/11 09:47:38;;;;;;;17.80;10.98;;;6.00;55.20;;;;;;4986823;28;20213;-81
2022/03/11 09:50:08;;;;;;;17.65;10.75;;;6.10;55.50;;;;;;4988458;28;20218;-81
2022/03/11 09:52:36;;;;;;;23.42;11.48;;;6.10;55.30;;;;;;5002401;28;20211;-81
2022/03/11 09:55:08;;;;;;;17.23;10.40;;;6.20;55.00;;;;;;4987773;28;20203;-82
2022/03/11 09:57:38;;;;;;;20.60;10.77;;;6.20;54.70;;;;;;4986514;28;20696;-82
2022/03/11 10:00:09;;;;;;;18.30;10.52;;;6.30;54.80;;;;;;5003103;28;20293;-82
2022/03/11 10:02:42;;;;;;;24.02;10.07;;;6.30;54.70;;;;;;4987588;28;20610;-82
2022/03/11 10:05:12;;;;;;;17.90;11.23;;;6.40;54.80;;;;;;4997923;28;20226;-82
2022/03/11 10:08:01;;;;;;;20.45;11.55;;;6.40;54.10;;;;;;5002470;28;20593;-82
2022/03/11 10:10:29;;;;;;;22.27;11.05;;;6.50;54.50;;;;;;5002680;28;20230;-81
2022/03/11 10:13:10;;;;;;;22.45;12.32;;;6.50;54.50;;;;;;4984590;28;20198;-81
2022/03/11 10:15:39;;;;;;;20.63;11.38;;;6.60;54.50;;;;;;5000560;28;20930;-82
2022/03/11 10:18:14;;;;;;;16.05;10.05;;;6.70;54.70;;;;;;5000010;28;20202;-81
2022/03/11 10:20:42;;;;;;;18.30;10.38;;;6.80;54.30;;;;;;4985089;28;20219;-81
2022/03/11 10:23:13;;;;;;;20.52;12.00;;;6.80;54.10;;;;;;4987155;28;20210;-81
2022/03/11 10:25:41;;;;;;;23.63;13.07;;;6.90;54.10;;;;;;5001491;28;20278;-82
2022/03/11 10:28:14;;;;;;;18.30;11.50;;;6.90;54.10;;;;;;4987366;28;20415;-81
2022/03/11 10:30:43;;;;;;;23.20;11.73;;;7.00;53.90;;;;;;4985564;28;20230;-82
2022/03/11 10:33:13;;;;;;;21.15;12.80;;;7.00;54.00;;;;;;4979901;28;20237;-82
2022/03/11 10:35:47;;;;;;;24.50;12.40;;;7.10;54.20;;;;;;4986139;28;20275;-82
2022/03/11 10:38:17;;;;;;;20.83;11.75;;;7.20;54.00;;;;;;5001942;28;20215;-82
2022/03/11 10:40:51;;;;;;;18.65;11.57;;;7.30;53.70;;;;;;4986201;28;20253;-82
2022/03/11 10:43:21;;;;;;;20.02;11.63;;;7.30;53.50;;;;;;4985150;28;20194;-81
2022/03/11 10:45:52;;;;;;;18.70;11.95;;;7.40;53.10;;;;;;4985725;28;20234;-81
2022/03/11 10:48:35;;;;;;;19.00;11.45;;;7.50;53.50;;;;;;4998028;28;20199;-81
2022/03/11 10:51:03;;;;;;;18.70;10.67;;;7.60;53.20;;;;;;5000107;28;20242;-81
2022/03/11 10:53:38;;;;;;;28.98;11.70;;;7.60;53.40;;;;;;4985736;28;20461;-81
2022/03/11 10:56:07;;;;;;;23.08;12.10;;;7.70;53.20;;;;;;4982825;28;20281;-81
2022/03/11 10:58:38;;;;;;;23.23;12.30;;;7.80;53.10;;;;;;5002655;28;20210;-81
2022/03/11 11:01:06;;;;;;;28.55;11.77;;;7.80;53.00;;;;;;4986348;28;20902;-81
2022/03/11 11:03:35;;;;;;;18.07;11.40;;;7.90;52.70;;;;;;5001563;28;20214;-81
2022/03/11 11:06:03;;;;;;;16.30;10.50;;;7.90;52.60;;;;;;4986285;28;20859;-82
2022/03/11 11:08:32;;;;;;;20.43;11.90;;;8.00;52.50;;;;;;4986767;28;20469;-81
2022/03/11 11:11:01;;;;;;;21.70;11.73;;;8.10;52.50;;;;;;4986432;28;20477;-82
2022/03/11 11:13:29;;;;;;;23.67;13.00;;;8.10;52.30;;;;;;4984617;28;20461;-82
2022/03/11 11:16:01;;;;;;;22.23;13.50;;;8.20;52.60;;;;;;4998951;28;20238;-81
2022/03/11 11:18:32;;;;;;;17.63;11.60;;;8.30;52.40;;;;;;5000261;28;20217;-82
2022/03/11 11:21:01;;;;;;;22.53;12.10;;;8.30;52.00;;;;;;4987097;28;20707;-81
2022/03/11 11:23:30;;;;;;;24.77;14.70;;;8.40;52.20;;;;;;4984412;28;20465;-81
2022/03/11 11:25:59;;;;;;;21.47;11.83;;;8.40;52.30;;;;;;4985686;28;20457;-81
2022/03/11 11:28:30;;;;;;;26.63;12.70;;;8.50;52.00;;;;;;4986773;28;20442;-81
2022/03/11 11:31:00;;;;;;;17.77;11.10;;;8.60;52.00;;;;;;4983223;28;20471;-82
2022/03/11 11:33:29;;;;;;;18.83;12.57;;;8.70;51.50;;;;;;4985680;28;20481;-83
2022/03/11 11:36:01;;;;;;;21.87;10.83;;;8.70;51.20;;;;;;4985655;28;20465;-80
2022/03/11 11:38:35;;;;;;;28.30;12.53;;;8.70;51.40;;;;;;4987161;28;20480;-81
2022/03/11 11:41:22;;;;;;;22.83;11.33;;;8.80;51.20;;;;;;4999896;28;20493;-81
2022/03/11 11:43:56;;;;;;;27.63;14.00;;;8.80;51.00;;;;;;4982188;28;20449;-82
2022/03/11 11:46:25;;;;;;;19.73;11.93;;;8.90;50.90;;;;;;4997172;28;20485;-81
2022/03/11 11:49:22;;;;;;;21.20;10.87;;;8.90;50.80;;;;;;5000256;28;20516;-81
2022/03/11 11:52:00;;;;;;;17.50;11.33;;;9.00;50.60;;;;;;4985310;28;20481;-81
2022/03/11 11:54:43;;;;;;;17.77;11.00;;;9.00;50.80;;;;;;4999586;28;20461;-81
2022/03/11 11:57:35;;;;;;;21.53;10.70;;;9.20;50.50;;;;;;4983648;28;20454;-81
2022/03/11 12:00:30;;;;;;;16.30;10.53;;;9.20;50.00;;;;;;4996982;28;21198;-79
2022/03/11 12:03:00;;;;;;;20.70;10.87;;;9.30;50.10;;;;;;4994259;28;21007;-83
2022/03/11 12:05:44;;;;;;;21.30;12.20;;;9.30;50.00;;;;;;4996173;28;20657;-81
2022/03/11 12:08:50;;;;;;;16.53;11.17;;;9.40;49.80;;;;;;5002557;28;20454;-81
2022/03/11 12:11:42;;;;;;;17.50;10.60;;;9.40;49.80;;;;;;4984812;28;20546;-80
2022/03/11 12:14:10;;;;;;;18.40;10.80;;;9.40;49.20;;;;;;4985827;28;20504;-79
2022/03/11 12:17:01;;;;;;;19.93;12.70;;;9.40;49.20;;;;;;5004087;28;20469;-82
2022/03/11 12:19:42;;;;;;;21.07;12.20;;;9.50;49.60;;;;;;5003150;28;20485;-81
2022/03/11 12:22:23;;;;;;;23.93;11.37;;;9.60;49.60;;;;;;4988876;28;20475;-81
2022/03/11 12:24:59;;;;;;;17.53;10.40;;;9.60;49.50;;;;;;5003098;28;20457;-81
2022/03/11 12:28:03;;;;;;;23.70;11.27;;;9.70;49.30;;;;;;4988198;28;20453;-80
2022/03/11 12:30:32;;;;;;;16.77;9.80;;;9.80;49.30;;;;;;4991494;28;20476;-81
2022/03/11 12:33:02;;;;;;;17.07;10.80;;;9.90;49.30;;;;;;5003455;28;20473;-81
2022/03/11 12:35:31;;;;;;;23.00;11.10;;;9.90;49.20;;;;;;4994747;28;20601;-81
2022/03/11 12:38:00;;;;;;;21.47;11.97;;;10.00;48.50;;;;;;4989036;28;20446;-81
2022/03/11 12:40:29;;;;;;;37.63;11.80;;;10.00;48.40;;;;;;4991934;28;20474;-81
2022/03/11 12:42:59;;;;;;;16.50;10.37;;;10.10;48.40;;;;;;4986656;28;20488;-81
2022/03/11 12:45:36;;;;;;;17.73;10.50;;;10.10;48.10;;;;;;4987782;28;20461;-80
2022/03/11 12:48:05;;;;;;;20.30;10.53;;;10.10;47.70;;;;;;4988490;28;20460;-81
2022/03/11 12:50:35;;;;;;;31.60;15.23;;;10.20;48.10;;;;;;5003405;28;20993;-83